sensor_id;sensor_type;location;lat;lon;timestamp;temperature;humidity
10278;DHT22;5184;51.376;7.148;2023-12-22T00:01:08;5.30;99.90
10278;DHT22;5184;51.376;7.148;2023-12-22T00:03:35;5.30;99.90
10278;DHT22;5184;51.376;7.148;2023-12-22T00:06:03;5.30;99.90
10278;DHT22;5184;51.376;7.148;2023-12-22T00:08:29;5.30;99.90
10278;DHT22;5184;51.376;7.148;2023-12-22T00:10:56;5.30;99.90
10278;DHT22;5184;51.376;7.148;2023-12-22T00:13:23;5.20;99.90
10278;DHT22;5184;51.376;7.148;2023-12-22T00:15:51;5.10;99.90
10278;DHT22;5184;51.376;7.148;2023-12-22T00:18:18;5.10;99.90
10278;DHT22;5184;51.376;7.148;2023-12-22T00:20:45;5.10;99.90
10278;DHT22;5184;51.376;7.148;2023-12-22T00:23:13;5.10;99.90
10278;DHT22;5184;51.376;7.148;2023-12-22T00:25:40;5.10;99.90
10278;DHT22;5184;51.376;7.148;2023-12-22T00:28:07;5.10;99.90
10278;DHT22;5184;51.376;7.148;2023-12-22T00:30:34;5.10;99.90
10278;DHT22;5184;51.376;7.148;2023-12-22T00:33:01;5.10;99.90
10278;DHT22;5184;51.376;7.148;2023-12-22T00:35:28;5.10;99.90
10278;DHT22;5184;51.376;7.148;2023-12-22T00:37:55;5.10;99.90
10278;DHT22;5184;51.376;7.148;2023-12-22T00:40:21;5.20;99.90
10278;DHT22;5184;51.376;7.148;2023-12-22T00:42:48;5.20;99.90
10278;DHT22;5184;51.376;7.148;2023-12-22T00:45:14;5.20;99.90
10278;DHT22;5184;51.376;7.148;2023-12-22T00:47:41;5.20;99.90
10278;DHT22;5184;51.376;7.148;2023-12-22T00:50:08;5.30;99.90
10278;DHT22;5184;51.376;7.148;2023-12-22T00:52:35;5.30;99.90
10278;DHT22;5184;51.376;7.148;2023-12-22T00:55:02;5.30;99.90
10278;DHT22;5184;51.376;7.148;2023-12-22T00:57:28;5.30;99.90
10278;DHT22;5184;51.376;7.148;2023-12-22T00:59:56;5.30;99.90
10278;DHT22;5184;51.376;7.148;2023-12-22T01:02:23;5.30;99.90
10278;DHT22;5184;51.376;7.148;2023-12-22T01:04:50;5.40;99.90
10278;DHT22;5184;51.376;7.148;2023-12-22T01:07:18;5.40;99.90
10278;DHT22;5184;51.376;7.148;2023-12-22T01:09:45;5.40;99.90
10278;DHT22;5184;51.376;7.148;2023-12-22T01:12:12;5.50;99.90
10278;DHT22;5184;51.376;7.148;2023-12-22T01:14:40;5.50;99.90
10278;DHT22;5184;51.376;7.148;2023-12-22T01:17:06;5.40;99.90
10278;DHT22;5184;51.376;7.148;2023-12-22T01:19:33;5.50;99.90
10278;DHT22;5184;51.376;7.148;2023-12-22T01:22:00;5.50;99.90
10278;DHT22;5184;51.376;7.148;2023-12-22T01:24:26;5.60;99.90
10278;DHT22;5184;51.376;7.148;2023-12-22T01:26:53;5.60;99.90
10278;DHT22;5184;51.376;7.148;2023-12-22T01:29:19;5.60;99.90
10278;DHT22;5184;51.376;7.148;2023-12-22T01:31:46;5.50;99.90
10278;DHT22;5184;51.376;7.148;2023-12-22T01:34:13;5.50;99.90
10278;DHT22;5184;51.376;7.148;2023-12-22T01:36:41;5.80;99.90
10278;DHT22;5184;51.376;7.148;2023-12-22T01:39:08;5.40;99.90
10278;DHT22;5184;51.376;7.148;2023-12-22T01:41:35;5.20;99.90
10278;DHT22;5184;51.376;7.148;2023-12-22T01:44:03;4.80;99.90
10278;DHT22;5184;51.376;7.148;2023-12-22T01:46:30;4.60;99.90
10278;DHT22;5184;51.376;7.148;2023-12-22T01:48:58;4.50;99.90
10278;DHT22;5184;51.376;7.148;2023-12-22T01:51:24;4.50;99.90
10278;DHT22;5184;51.376;7.148;2023-12-22T01:53:51;4.30;99.90
10278;DHT22;5184;51.376;7.148;2023-12-22T01:56:17;4.20;99.90
10278;DHT22;5184;51.376;7.148;2023-12-22T01:58:44;4.10;99.90
10278;DHT22;5184;51.376;7.148;2023-12-22T02:01:10;4.00;99.90
10278;DHT22;5184;51.376;7.148;2023-12-22T02:03:37;4.00;99.90
10278;DHT22;5184;51.376;7.148;2023-12-22T02:06:04;4.00;99.90
10278;DHT22;5184;51.376;7.148;2023-12-22T02:08:32;4.00;99.90
10278;DHT22;5184;51.376;7.148;2023-12-22T02:10:59;4.00;99.90
10278;DHT22;5184;51.376;7.148;2023-12-22T02:13:25;4.10;99.90
10278;DHT22;5184;51.376;7.148;2023-12-22T02:15:55;4.10;99.90
10278;DHT22;5184;51.376;7.148;2023-12-22T02:18:21;4.30;99.90
10278;DHT22;5184;51.376;7.148;2023-12-22T02:20:47;4.40;99.90
10278;DHT22;5184;51.376;7.148;2023-12-22T02:23:15;4.40;99.90
10278;DHT22;5184;51.376;7.148;2023-12-22T02:25:42;4.40;99.90
10278;DHT22;5184;51.376;7.148;2023-12-22T02:28:10;4.50;99.90
10278;DHT22;5184;51.376;7.148;2023-12-22T02:30:54;4.50;99.90
10278;DHT22;5184;51.376;7.148;2023-12-22T02:33:20;4.50;99.90
10278;DHT22;5184;51.376;7.148;2023-12-22T02:35:47;4.50;99.90
10278;DHT22;5184;51.376;7.148;2023-12-22T02:38:15;4.50;99.90
10278;DHT22;5184;51.376;7.148;2023-12-22T02:40:42;4.50;99.90
10278;DHT22;5184;51.376;7.148;2023-12-22T02:43:09;4.50;99.90
10278;DHT22;5184;51.376;7.148;2023-12-22T02:45:37;4.50;99.90
10278;DHT22;5184;51.376;7.148;2023-12-22T02:48:04;4.50;99.90
10278;DHT22;5184;51.376;7.148;2023-12-22T02:50:31;4.50;99.90
10278;DHT22;5184;51.376;7.148;2023-12-22T02:52:58;4.50;99.90
10278;DHT22;5184;51.376;7.148;2023-12-22T02:55:24;4.50;99.90
10278;DHT22;5184;51.376;7.148;2023-12-22T02:57:52;4.50;99.90
10278;DHT22;5184;51.376;7.148;2023-12-22T03:00:19;4.60;99.90
10278;DHT22;5184;51.376;7.148;2023-12-22T03:02:46;4.60;99.90
10278;DHT22;5184;51.376;7.148;2023-12-22T03:05:14;4.60;99.90
10278;DHT22;5184;51.376;7.148;2023-12-22T03:07:41;4.60;99.90
10278;DHT22;5184;51.376;7.148;2023-12-22T03:10:08;4.60;99.90
10278;DHT22;5184;51.376;7.148;2023-12-22T03:12:36;4.60;99.90
10278;DHT22;5184;51.376;7.148;2023-12-22T03:15:03;4.60;99.90
10278;DHT22;5184;51.376;7.148;2023-12-22T03:17:30;4.60;99.90
10278;DHT22;5184;51.376;7.148;2023-12-22T03:19:57;4.60;99.90
10278;DHT22;5184;51.376;7.148;2023-12-22T03:22:23;4.60;99.90
10278;DHT22;5184;51.376;7.148;2023-12-22T03:24:50;4.60;99.90
10278;DHT22;5184;51.376;7.148;2023-12-22T03:27:16;4.60;99.90
10278;DHT22;5184;51.376;7.148;2023-12-22T03:29:43;4.60;99.90
10278;DHT22;5184;51.376;7.148;2023-12-22T03:32:10;4.60;99.90
10278;DHT22;5184;51.376;7.148;2023-12-22T03:34:37;4.70;99.90
10278;DHT22;5184;51.376;7.148;2023-12-22T03:37:04;4.70;99.90
10278;DHT22;5184;51.376;7.148;2023-12-22T03:39:31;4.70;99.90
10278;DHT22;5184;51.376;7.148;2023-12-22T03:41:58;4.70;99.90
10278;DHT22;5184;51.376;7.148;2023-12-22T03:44:25;4.80;99.90
10278;DHT22;5184;51.376;7.148;2023-12-22T03:46:52;4.70;99.90
10278;DHT22;5184;51.376;7.148;2023-12-22T03:49:19;4.80;99.90
10278;DHT22;5184;51.376;7.148;2023-12-22T03:51:45;4.80;99.90
10278;DHT22;5184;51.376;7.148;2023-12-22T03:54:12;4.80;99.90
10278;DHT22;5184;51.376;7.148;2023-12-22T03:56:39;4.90;99.90
10278;DHT22;5184;51.376;7.148;2023-12-22T03:59:07;4.90;99.90
10278;DHT22;5184;51.376;7.148;2023-12-22T04:01:34;4.90;99.90
10278;DHT22;5184;51.376;7.148;2023-12-22T04:04:02;4.90;99.90
10278;DHT22;5184;51.376;7.148;2023-12-22T04:06:28;4.90;99.90
10278;DHT22;5184;51.376;7.148;2023-12-22T04:08:55;4.90;99.90
10278;DHT22;5184;51.376;7.148;2023-12-22T04:11:21;4.90;99.90
10278;DHT22;5184;51.376;7.148;2023-12-22T04:13:48;4.90;99.90
10278;DHT22;5184;51.376;7.148;2023-12-22T04:16:14;4.90;99.90
10278;DHT22;5184;51.376;7.148;2023-12-22T04:18:41;4.80;99.90
10278;DHT22;5184;51.376;7.148;2023-12-22T04:21:08;4.80;99.90
10278;DHT22;5184;51.376;7.148;2023-12-22T04:23:35;4.80;99.90
10278;DHT22;5184;51.376;7.148;2023-12-22T04:26:02;4.80;99.90
10278;DHT22;5184;51.376;7.148;2023-12-22T04:28:29;4.80;99.90
10278;DHT22;5184;51.376;7.148;2023-12-22T04:30:56;4.80;99.90
10278;DHT22;5184;51.376;7.148;2023-12-22T04:33:24;4.80;99.90
10278;DHT22;5184;51.376;7.148;2023-12-22T04:35:51;4.80;99.90
10278;DHT22;5184;51.376;7.148;2023-12-22T04:38:18;4.80;99.90
10278;DHT22;5184;51.376;7.148;2023-12-22T04:40:45;4.80;99.90
10278;DHT22;5184;51.376;7.148;2023-12-22T04:43:12;4.90;99.90
10278;DHT22;5184;51.376;7.148;2023-12-22T04:45:39;4.90;99.90
10278;DHT22;5184;51.376;7.148;2023-12-22T04:48:06;4.90;99.90
10278;DHT22;5184;51.376;7.148;2023-12-22T04:50:33;5.00;99.90
10278;DHT22;5184;51.376;7.148;2023-12-22T04:52:59;5.00;99.90
10278;DHT22;5184;51.376;7.148;2023-12-22T04:55:27;4.90;99.90
10278;DHT22;5184;51.376;7.148;2023-12-22T04:57:54;4.90;99.90
10278;DHT22;5184;51.376;7.148;2023-12-22T05:00:21;4.90;99.90
10278;DHT22;5184;51.376;7.148;2023-12-22T05:02:49;4.90;99.90
10278;DHT22;5184;51.376;7.148;2023-12-22T05:05:16;4.90;99.90
10278;DHT22;5184;51.376;7.148;2023-12-22T05:07:43;4.90;99.90
10278;DHT22;5184;51.376;7.148;2023-12-22T05:10:10;4.90;99.90
10278;DHT22;5184;51.376;7.148;2023-12-22T05:12:36;4.90;99.90
10278;DHT22;5184;51.376;7.148;2023-12-22T05:15:03;5.00;99.90
10278;DHT22;5184;51.376;7.148;2023-12-22T05:17:30;5.00;99.90
10278;DHT22;5184;51.376;7.148;2023-12-22T05:19:58;5.00;99.90
10278;DHT22;5184;51.376;7.148;2023-12-22T05:22:25;4.90;99.90
10278;DHT22;5184;51.376;7.148;2023-12-22T05:24:53;4.90;99.90
10278;DHT22;5184;51.376;7.148;2023-12-22T05:27:19;4.90;99.90
10278;DHT22;5184;51.376;7.148;2023-12-22T05:29:46;4.80;99.90
10278;DHT22;5184;51.376;7.148;2023-12-22T05:32:13;4.80;99.90
10278;DHT22;5184;51.376;7.148;2023-12-22T05:34:39;4.80;99.90
10278;DHT22;5184;51.376;7.148;2023-12-22T05:37:06;4.70;99.90
10278;DHT22;5184;51.376;7.148;2023-12-22T05:39:33;4.70;99.90
10278;DHT22;5184;51.376;7.148;2023-12-22T05:42:01;4.70;99.90
10278;DHT22;5184;51.376;7.148;2023-12-22T05:44:28;4.70;99.90
10278;DHT22;5184;51.376;7.148;2023-12-22T05:46:56;4.70;99.90
10278;DHT22;5184;51.376;7.148;2023-12-22T05:49:23;4.70;99.90
10278;DHT22;5184;51.376;7.148;2023-12-22T05:51:49;4.60;99.90
10278;DHT22;5184;51.376;7.148;2023-12-22T05:54:16;4.60;99.90
10278;DHT22;5184;51.376;7.148;2023-12-22T05:56:43;4.60;99.90
10278;DHT22;5184;51.376;7.148;2023-12-22T05:59:10;4.60;99.90
10278;DHT22;5184;51.376;7.148;2023-12-22T06:01:36;4.60;99.90
10278;DHT22;5184;51.376;7.148;2023-12-22T06:04:03;4.60;99.90
10278;DHT22;5184;51.376;7.148;2023-12-22T06:06:30;4.70;99.90
10278;DHT22;5184;51.376;7.148;2023-12-22T06:08:58;4.70;99.90
10278;DHT22;5184;51.376;7.148;2023-12-22T06:11:25;4.70;99.90
10278;DHT22;5184;51.376;7.148;2023-12-22T06:13:52;4.70;99.90
10278;DHT22;5184;51.376;7.148;2023-12-22T06:16:19;4.70;99.90
10278;DHT22;5184;51.376;7.148;2023-12-22T06:18:46;4.80;99.90
10278;DHT22;5184;51.376;7.148;2023-12-22T06:21:12;4.80;99.90
10278;DHT22;5184;51.376;7.148;2023-12-22T06:23:40;4.90;99.90
10278;DHT22;5184;51.376;7.148;2023-12-22T06:26:09;4.90;99.90
10278;DHT22;5184;51.376;7.148;2023-12-22T06:28:36;5.00;99.90
10278;DHT22;5184;51.376;7.148;2023-12-22T06:31:03;5.00;99.90
10278;DHT22;5184;51.376;7.148;2023-12-22T06:33:30;5.00;99.90
10278;DHT22;5184;51.376;7.148;2023-12-22T06:35:57;5.00;99.90
10278;DHT22;5184;51.376;7.148;2023-12-22T06:38:23;5.00;99.90
10278;DHT22;5184;51.376;7.148;2023-12-22T06:40:50;5.00;99.90
10278;DHT22;5184;51.376;7.148;2023-12-22T06:43:17;5.00;99.90
10278;DHT22;5184;51.376;7.148;2023-12-22T06:45:43;5.00;99.90
10278;DHT22;5184;51.376;7.148;2023-12-22T06:48:10;5.10;99.90
10278;DHT22;5184;51.376;7.148;2023-12-22T06:50:36;5.10;99.90
10278;DHT22;5184;51.376;7.148;2023-12-22T06:53:04;5.10;99.90
10278;DHT22;5184;51.376;7.148;2023-12-22T06:55:31;5.10;99.90
10278;DHT22;5184;51.376;7.148;2023-12-22T06:57:58;5.20;99.90
10278;DHT22;5184;51.376;7.148;2023-12-22T07:00:26;5.10;99.90
10278;DHT22;5184;51.376;7.148;2023-12-22T07:02:53;5.10;99.90
10278;DHT22;5184;51.376;7.148;2023-12-22T07:05:35;5.10;99.90
10278;DHT22;5184;51.376;7.148;2023-12-22T07:08:01;5.10;99.90
10278;DHT22;5184;51.376;7.148;2023-12-22T07:10:28;5.10;99.90
10278;DHT22;5184;51.376;7.148;2023-12-22T07:12:55;5.20;99.90
10278;DHT22;5184;51.376;7.148;2023-12-22T07:15:22;5.10;99.90
10278;DHT22;5184;51.376;7.148;2023-12-22T07:17:48;5.20;99.90
10278;DHT22;5184;51.376;7.148;2023-12-22T07:20:15;5.20;99.90
10278;DHT22;5184;51.376;7.148;2023-12-22T07:22:44;5.20;99.90
10278;DHT22;5184;51.376;7.148;2023-12-22T07:25:08;5.30;99.90
10278;DHT22;5184;51.376;7.148;2023-12-22T07:27:35;5.30;99.90
10278;DHT22;5184;51.376;7.148;2023-12-22T07:30:01;5.30;99.90
10278;DHT22;5184;51.376;7.148;2023-12-22T07:32:29;5.40;99.90
10278;DHT22;5184;51.376;7.148;2023-12-22T07:34:56;5.50;99.90
10278;DHT22;5184;51.376;7.148;2023-12-22T07:37:24;5.60;99.90
10278;DHT22;5184;51.376;7.148;2023-12-22T07:39:51;5.70;99.90
10278;DHT22;5184;51.376;7.148;2023-12-22T07:42:18;5.70;99.90
10278;DHT22;5184;51.376;7.148;2023-12-22T07:44:45;5.70;99.90
10278;DHT22;5184;51.376;7.148;2023-12-22T07:47:11;5.80;99.90
10278;DHT22;5184;51.376;7.148;2023-12-22T07:49:38;5.90;99.90
10278;DHT22;5184;51.376;7.148;2023-12-22T07:52:05;6.00;99.90
10278;DHT22;5184;51.376;7.148;2023-12-22T07:54:32;6.10;99.90
10278;DHT22;5184;51.376;7.148;2023-12-22T07:57:00;6.10;99.90
10278;DHT22;5184;51.376;7.148;2023-12-22T07:59:27;6.30;99.90
10278;DHT22;5184;51.376;7.148;2023-12-22T08:01:54;6.20;99.90
10278;DHT22;5184;51.376;7.148;2023-12-22T08:04:20;6.40;99.90
10278;DHT22;5184;51.376;7.148;2023-12-22T08:06:47;6.40;99.90
10278;DHT22;5184;51.376;7.148;2023-12-22T08:09:14;6.50;99.90
10278;DHT22;5184;51.376;7.148;2023-12-22T08:11:40;6.50;99.90
10278;DHT22;5184;51.376;7.148;2023-12-22T08:14:07;6.60;99.90
10278;DHT22;5184;51.376;7.148;2023-12-22T08:16:33;6.70;99.90
10278;DHT22;5184;51.376;7.148;2023-12-22T08:19:01;6.90;99.90
10278;DHT22;5184;51.376;7.148;2023-12-22T08:21:28;6.90;99.90
10278;DHT22;5184;51.376;7.148;2023-12-22T08:23:55;7.00;99.90
10278;DHT22;5184;51.376;7.148;2023-12-22T08:26:23;7.00;99.90
10278;DHT22;5184;51.376;7.148;2023-12-22T08:28:49;7.00;99.90
10278;DHT22;5184;51.376;7.148;2023-12-22T08:31:16;7.00;99.90
10278;DHT22;5184;51.376;7.148;2023-12-22T08:33:43;7.10;99.90
10278;DHT22;5184;51.376;7.148;2023-12-22T08:36:09;7.10;99.90
10278;DHT22;5184;51.376;7.148;2023-12-22T08:38:36;7.10;99.90
10278;DHT22;5184;51.376;7.148;2023-12-22T08:41:03;7.20;99.90
10278;DHT22;5184;51.376;7.148;2023-12-22T08:43:31;7.20;99.90
10278;DHT22;5184;51.376;7.148;2023-12-22T08:45:57;7.20;99.90
10278;DHT22;5184;51.376;7.148;2023-12-22T08:48:24;7.20;99.90
10278;DHT22;5184;51.376;7.148;2023-12-22T08:50:50;7.20;99.90
10278;DHT22;5184;51.376;7.148;2023-12-22T08:53:17;7.20;99.90
10278;DHT22;5184;51.376;7.148;2023-12-22T08:55:43;7.20;99.90
10278;DHT22;5184;51.376;7.148;2023-12-22T08:58:11;7.30;99.90
10278;DHT22;5184;51.376;7.148;2023-12-22T09:00:37;7.30;99.90
10278;DHT22;5184;51.376;7.148;2023-12-22T09:03:04;7.30;99.90
10278;DHT22;5184;51.376;7.148;2023-12-22T09:05:31;7.30;99.90
10278;DHT22;5184;51.376;7.148;2023-12-22T09:07:57;7.30;99.90
10278;DHT22;5184;51.376;7.148;2023-12-22T09:10:24;7.30;99.90
10278;DHT22;5184;51.376;7.148;2023-12-22T09:12:50;7.30;99.90
10278;DHT22;5184;51.376;7.148;2023-12-22T09:15:17;7.30;99.90
10278;DHT22;5184;51.376;7.148;2023-12-22T09:17:44;7.10;99.90
10278;DHT22;5184;51.376;7.148;2023-12-22T09:20:12;6.80;99.90
10278;DHT22;5184;51.376;7.148;2023-12-22T09:22:39;6.50;99.90
10278;DHT22;5184;51.376;7.148;2023-12-22T09:25:06;6.40;99.90
10278;DHT22;5184;51.376;7.148;2023-12-22T09:27:33;6.40;99.90
10278;DHT22;5184;51.376;7.148;2023-12-22T09:30:00;6.50;99.90
10278;DHT22;5184;51.376;7.148;2023-12-22T09:32:28;6.50;99.90
10278;DHT22;5184;51.376;7.148;2023-12-22T09:34:55;6.50;99.90
10278;DHT22;5184;51.376;7.148;2023-12-22T09:37:22;6.60;99.90
10278;DHT22;5184;51.376;7.148;2023-12-22T09:39:49;6.60;99.90
10278;DHT22;5184;51.376;7.148;2023-12-22T09:42:16;6.70;99.90
10278;DHT22;5184;51.376;7.148;2023-12-22T09:44:42;6.80;99.90
10278;DHT22;5184;51.376;7.148;2023-12-22T09:47:09;6.90;99.90
10278;DHT22;5184;51.376;7.148;2023-12-22T09:49:35;6.80;99.90
10278;DHT22;5184;51.376;7.148;2023-12-22T09:52:03;6.90;99.90
10278;DHT22;5184;51.376;7.148;2023-12-22T09:54:30;6.90;99.90
10278;DHT22;5184;51.376;7.148;2023-12-22T09:56:58;6.90;99.90
10278;DHT22;5184;51.376;7.148;2023-12-22T09:59:25;7.00;99.90
10278;DHT22;5184;51.376;7.148;2023-12-22T10:01:51;7.00;99.90
10278;DHT22;5184;51.376;7.148;2023-12-22T10:04:18;7.00;99.90
10278;DHT22;5184;51.376;7.148;2023-12-22T10:06:46;7.00;99.90
10278;DHT22;5184;51.376;7.148;2023-12-22T10:09:13;7.00;99.90
10278;DHT22;5184;51.376;7.148;2023-12-22T10:11:40;7.00;99.90
10278;DHT22;5184;51.376;7.148;2023-12-22T10:14:07;7.00;99.90
10278;DHT22;5184;51.376;7.148;2023-12-22T10:16:35;7.00;99.90
10278;DHT22;5184;51.376;7.148;2023-12-22T10:19:01;7.00;99.90
10278;DHT22;5184;51.376;7.148;2023-12-22T10:21:28;7.00;99.90
10278;DHT22;5184;51.376;7.148;2023-12-22T10:23:54;7.00;99.90
10278;DHT22;5184;51.376;7.148;2023-12-22T10:26:21;7.00;99.90
10278;DHT22;5184;51.376;7.148;2023-12-22T10:28:48;7.00;99.90
10278;DHT22;5184;51.376;7.148;2023-12-22T10:31:15;7.10;99.90
10278;DHT22;5184;51.376;7.148;2023-12-22T10:33:43;7.10;99.90
10278;DHT22;5184;51.376;7.148;2023-12-22T10:36:10;7.10;99.90
10278;DHT22;5184;51.376;7.148;2023-12-22T10:38:38;7.10;99.90
10278;DHT22;5184;51.376;7.148;2023-12-22T10:41:06;7.10;99.90
10278;DHT22;5184;51.376;7.148;2023-12-22T10:43:39;7.10;99.90
10278;DHT22;5184;51.376;7.148;2023-12-22T10:46:06;7.10;99.90
10278;DHT22;5184;51.376;7.148;2023-12-22T10:48:33;7.10;99.90
10278;DHT22;5184;51.376;7.148;2023-12-22T10:50:59;7.10;99.90
10278;DHT22;5184;51.376;7.148;2023-12-22T10:53:25;7.20;99.90
10278;DHT22;5184;51.376;7.148;2023-12-22T10:55:52;7.20;99.90
10278;DHT22;5184;51.376;7.148;2023-12-22T10:58:19;7.30;99.90
10278;DHT22;5184;51.376;7.148;2023-12-22T11:00:47;7.30;99.90
10278;DHT22;5184;51.376;7.148;2023-12-22T11:03:17;7.40;99.90
10278;DHT22;5184;51.376;7.148;2023-12-22T11:05:43;7.30;99.90
10278;DHT22;5184;51.376;7.148;2023-12-22T11:08:08;7.40;99.90
10278;DHT22;5184;51.376;7.148;2023-12-22T11:10:35;7.30;99.90
10278;DHT22;5184;51.376;7.148;2023-12-22T11:13:01;7.20;99.90
10278;DHT22;5184;51.376;7.148;2023-12-22T11:15:28;7.20;99.90
10278;DHT22;5184;51.376;7.148;2023-12-22T11:17:55;7.20;99.90
10278;DHT22;5184;51.376;7.148;2023-12-22T11:20:21;7.10;99.90
10278;DHT22;5184;51.376;7.148;2023-12-22T11:22:48;7.10;99.90
10278;DHT22;5184;51.376;7.148;2023-12-22T11:25:14;7.00;99.90
10278;DHT22;5184;51.376;7.148;2023-12-22T11:27:41;7.00;99.90
10278;DHT22;5184;51.376;7.148;2023-12-22T11:30:08;7.00;99.90
10278;DHT22;5184;51.376;7.148;2023-12-22T11:32:34;6.90;99.90
10278;DHT22;5184;51.376;7.148;2023-12-22T11:35:02;6.90;99.90
10278;DHT22;5184;51.376;7.148;2023-12-22T11:37:29;6.80;99.90
10278;DHT22;5184;51.376;7.148;2023-12-22T11:39:56;6.90;99.90
10278;DHT22;5184;51.376;7.148;2023-12-22T11:42:25;7.00;99.90
10278;DHT22;5184;51.376;7.148;2023-12-22T11:44:52;6.90;99.90
10278;DHT22;5184;51.376;7.148;2023-12-22T11:47:17;7.00;99.90
10278;DHT22;5184;51.376;7.148;2023-12-22T11:49:44;7.10;99.90
10278;DHT22;5184;51.376;7.148;2023-12-22T11:52:14;7.30;99.90
10278;DHT22;5184;51.376;7.148;2023-12-22T11:54:46;7.70;99.90
10278;DHT22;5184;51.376;7.148;2023-12-22T11:59:50;7.90;99.90
10278;DHT22;5184;51.376;7.148;2023-12-22T12:02:18;8.10;99.90
10278;DHT22;5184;51.376;7.148;2023-12-22T12:04:47;8.20;99.90
10278;DHT22;5184;51.376;7.148;2023-12-22T12:09:51;8.30;99.90
10278;DHT22;5184;51.376;7.148;2023-12-22T12:12:17;8.30;99.90
10278;DHT22;5184;51.376;7.148;2023-12-22T12:14:44;8.30;99.90
10278;DHT22;5184;51.376;7.148;2023-12-22T12:17:11;8.40;99.90
10278;DHT22;5184;51.376;7.148;2023-12-22T12:19:37;8.40;99.90
10278;DHT22;5184;51.376;7.148;2023-12-22T12:22:05;8.50;99.90
10278;DHT22;5184;51.376;7.148;2023-12-22T12:24:32;8.60;99.90
10278;DHT22;5184;51.376;7.148;2023-12-22T12:26:59;8.70;99.90
10278;DHT22;5184;51.376;7.148;2023-12-22T12:29:27;8.70;99.90
10278;DHT22;5184;51.376;7.148;2023-12-22T12:32:01;8.70;99.90
10278;DHT22;5184;51.376;7.148;2023-12-22T12:34:21;8.80;99.90
10278;DHT22;5184;51.376;7.148;2023-12-22T12:36:49;8.90;99.90
10278;DHT22;5184;51.376;7.148;2023-12-22T12:39:16;8.90;99.90
10278;DHT22;5184;51.376;7.148;2023-12-22T12:41:43;8.90;99.90
10278;DHT22;5184;51.376;7.148;2023-12-22T12:44:10;8.90;99.90
10278;DHT22;5184;51.376;7.148;2023-12-22T12:46:37;8.90;99.90
10278;DHT22;5184;51.376;7.148;2023-12-22T12:49:04;8.90;99.90
10278;DHT22;5184;51.376;7.148;2023-12-22T12:51:35;8.90;99.90
10278;DHT22;5184;51.376;7.148;2023-12-22T12:53:58;8.70;99.90
10278;DHT22;5184;51.376;7.148;2023-12-22T12:56:25;8.60;99.90
10278;DHT22;5184;51.376;7.148;2023-12-22T12:58:52;8.60;99.90
10278;DHT22;5184;51.376;7.148;2023-12-22T13:01:19;8.50;99.90
10278;DHT22;5184;51.376;7.148;2023-12-22T13:03:52;8.50;99.90
10278;DHT22;5184;51.376;7.148;2023-12-22T13:06:18;8.50;99.90
10278;DHT22;5184;51.376;7.148;2023-12-22T13:08:49;8.50;99.90
10278;DHT22;5184;51.376;7.148;2023-12-22T13:11:15;8.40;99.90
10278;DHT22;5184;51.376;7.148;2023-12-22T13:13:42;8.30;99.90
10278;DHT22;5184;51.376;7.148;2023-12-22T13:16:08;8.30;99.90
10278;DHT22;5184;51.376;7.148;2023-12-22T13:18:35;8.20;99.90
10278;DHT22;5184;51.376;7.148;2023-12-22T13:21:03;8.20;99.90
10278;DHT22;5184;51.376;7.148;2023-12-22T13:23:30;8.20;99.90
10278;DHT22;5184;51.376;7.148;2023-12-22T13:25:57;8.10;99.90
10278;DHT22;5184;51.376;7.148;2023-12-22T13:28:26;8.10;99.90
10278;DHT22;5184;51.376;7.148;2023-12-22T13:30:52;8.10;99.90
10278;DHT22;5184;51.376;7.148;2023-12-22T13:33:19;8.10;99.90
10278;DHT22;5184;51.376;7.148;2023-12-22T13:35:46;8.10;99.90
10278;DHT22;5184;51.376;7.148;2023-12-22T13:38:13;8.10;99.90
10278;DHT22;5184;51.376;7.148;2023-12-22T13:40:44;8.10;99.90
10278;DHT22;5184;51.376;7.148;2023-12-22T13:43:08;8.10;99.90
10278;DHT22;5184;51.376;7.148;2023-12-22T13:45:35;8.10;99.90
10278;DHT22;5184;51.376;7.148;2023-12-22T13:48:03;8.10;99.90
10278;DHT22;5184;51.376;7.148;2023-12-22T13:50:29;8.20;99.90
10278;DHT22;5184;51.376;7.148;2023-12-22T13:52:56;8.20;99.90
10278;DHT22;5184;51.376;7.148;2023-12-22T13:55:22;8.20;99.90
10278;DHT22;5184;51.376;7.148;2023-12-22T13:57:49;8.30;99.90
10278;DHT22;5184;51.376;7.148;2023-12-22T14:00:27;8.40;99.90
10278;DHT22;5184;51.376;7.148;2023-12-22T14:02:53;8.50;99.90
10278;DHT22;5184;51.376;7.148;2023-12-22T14:05:19;8.60;99.90
10278;DHT22;5184;51.376;7.148;2023-12-22T14:07:46;8.70;99.90
10278;DHT22;5184;51.376;7.148;2023-12-22T14:10:12;8.70;99.90
10278;DHT22;5184;51.376;7.148;2023-12-22T14:12:39;8.70;99.90
10278;DHT22;5184;51.376;7.148;2023-12-22T14:15:07;8.70;99.90
10278;DHT22;5184;51.376;7.148;2023-12-22T14:17:34;8.70;99.90
10278;DHT22;5184;51.376;7.148;2023-12-22T14:20:02;8.80;99.90
10278;DHT22;5184;51.376;7.148;2023-12-22T14:22:28;8.80;99.90
10278;DHT22;5184;51.376;7.148;2023-12-22T14:24:55;8.70;99.90
10278;DHT22;5184;51.376;7.148;2023-12-22T14:27:23;8.80;99.90
10278;DHT22;5184;51.376;7.148;2023-12-22T14:29:50;8.80;99.90
10278;DHT22;5184;51.376;7.148;2023-12-22T14:32:16;8.80;99.90
10278;DHT22;5184;51.376;7.148;2023-12-22T14:34:43;8.80;99.90
10278;DHT22;5184;51.376;7.148;2023-12-22T14:37:09;8.90;99.90
10278;DHT22;5184;51.376;7.148;2023-12-22T14:39:37;8.90;99.90
10278;DHT22;5184;51.376;7.148;2023-12-22T14:42:04;9.00;99.90
10278;DHT22;5184;51.376;7.148;2023-12-22T14:44:31;9.00;99.90
10278;DHT22;5184;51.376;7.148;2023-12-22T14:46:57;9.00;99.90
10278;DHT22;5184;51.376;7.148;2023-12-22T14:49:24;9.00;99.90
10278;DHT22;5184;51.376;7.148;2023-12-22T14:51:50;9.00;99.90
10278;DHT22;5184;51.376;7.148;2023-12-22T14:54:17;9.10;99.90
10278;DHT22;5184;51.376;7.148;2023-12-22T14:56:44;9.00;99.90
10278;DHT22;5184;51.376;7.148;2023-12-22T14:59:11;8.90;99.90
10278;DHT22;5184;51.376;7.148;2023-12-22T15:01:38;8.80;99.90
10278;DHT22;5184;51.376;7.148;2023-12-22T15:04:06;8.80;99.90
10278;DHT22;5184;51.376;7.148;2023-12-22T15:06:36;8.80;99.90
10278;DHT22;5184;51.376;7.148;2023-12-22T15:09:01;8.90;99.90
10278;DHT22;5184;51.376;7.148;2023-12-22T15:11:28;8.80;99.90
10278;DHT22;5184;51.376;7.148;2023-12-22T15:13:55;8.80;99.90
10278;DHT22;5184;51.376;7.148;2023-12-22T15:16:22;8.80;99.90
10278;DHT22;5184;51.376;7.148;2023-12-22T15:18:48;8.70;99.90
10278;DHT22;5184;51.376;7.148;2023-12-22T15:21:20;8.70;99.90
10278;DHT22;5184;51.376;7.148;2023-12-22T15:23:46;8.60;99.90
10278;DHT22;5184;51.376;7.148;2023-12-22T15:26:27;8.70;99.90
10278;DHT22;5184;51.376;7.148;2023-12-22T15:28:54;8.70;99.90
10278;DHT22;5184;51.376;7.148;2023-12-22T15:31:21;8.70;99.90
10278;DHT22;5184;51.376;7.148;2023-12-22T15:33:47;8.70;99.90
10278;DHT22;5184;51.376;7.148;2023-12-22T15:36:17;8.50;99.90
10278;DHT22;5184;51.376;7.148;2023-12-22T15:38:43;8.30;99.90
10278;DHT22;5184;51.376;7.148;2023-12-22T15:41:11;8.20;99.90
10278;DHT22;5184;51.376;7.148;2023-12-22T15:43:38;8.20;99.90
10278;DHT22;5184;51.376;7.148;2023-12-22T15:46:06;8.20;99.90
10278;DHT22;5184;51.376;7.148;2023-12-22T15:48:33;8.30;99.90
10278;DHT22;5184;51.376;7.148;2023-12-22T15:51:13;8.40;99.90
10278;DHT22;5184;51.376;7.148;2023-12-22T15:53:40;8.40;99.90
10278;DHT22;5184;51.376;7.148;2023-12-22T15:56:08;8.40;99.90
10278;DHT22;5184;51.376;7.148;2023-12-22T15:58:36;8.40;99.90
10278;DHT22;5184;51.376;7.148;2023-12-22T16:01:03;8.40;99.90
10278;DHT22;5184;51.376;7.148;2023-12-22T16:03:29;8.40;99.90
10278;DHT22;5184;51.376;7.148;2023-12-22T16:05:57;8.50;99.90